createdAt,value
2018-01-31T01:54:19.478Z,21.10
2018-01-31T01:56:46.174Z,20.85
2018-01-31T01:59:12.900Z,24.10
2018-01-31T02:01:39.555Z,19.95
2018-01-31T02:04:06.211Z,19.90
2018-01-31T02:06:33.024Z,24.73
2018-01-31T02:08:59.821Z,23.52
2018-01-31T02:11:26.513Z,22.33
2018-01-31T02:13:53.199Z,19.98
2018-01-31T02:16:19.843Z,21.45
2018-01-31T02:18:46.529Z,23.25
2018-01-31T02:21:13.175Z,22.75
2018-01-31T02:23:39.819Z,24.52
2018-01-31T02:26:06.543Z,24.15
2018-01-31T02:28:33.213Z,22.70
2018-01-31T02:30:59.890Z,22.02
2018-01-31T02:33:26.539Z,25.25
2018-01-31T02:35:53.203Z,24.33
2018-01-31T02:38:25.787Z,26.58
2018-01-31T02:40:52.462Z,22.13
2018-01-31T02:43:19.111Z,21.83
2018-01-31T02:45:45.789Z,23.92
2018-01-31T02:48:12.458Z,23.73
2018-01-31T02:50:39.115Z,21.45
2018-01-31T02:53:05.767Z,23.62
2018-01-31T02:55:32.460Z,26.10
2018-01-31T02:57:59.134Z,22.77
2018-01-31T03:00:25.814Z,27.27
2018-01-31T03:02:52.524Z,24.75
2018-01-31T03:05:19.136Z,26.98
2018-01-31T03:07:45.799Z,21.20
2018-01-31T03:10:12.443Z,22.80
2018-01-31T03:12:39.099Z,23.10
2018-01-31T03:15:05.882Z,21.58
2018-01-31T03:17:32.620Z,21.12
2018-01-31T03:19:59.357Z,24.23
2018-01-31T03:22:26.038Z,28.65
2018-01-31T03:24:52.688Z,24.98
2018-01-31T03:27:19.343Z,21.25
2018-01-31T03:29:46.037Z,22.80
2018-01-31T03:32:12.722Z,21.15
2018-01-31T03:34:39.418Z,19.70
2018-01-31T03:37:06.106Z,20.52
2018-01-31T03:39:32.756Z,22.48
2018-01-31T03:41:59.421Z,19.25
2018-01-31T03:44:26.085Z,23.33
2018-01-31T03:46:52.767Z,28.73
2018-01-31T03:49:19.546Z,22.58
2018-01-31T03:51:46.229Z,19.73
2018-01-31T03:54:12.881Z,18.95
2018-01-31T03:56:39.549Z,23.77
2018-01-31T03:59:06.231Z,19.67
2018-01-31T04:01:32.948Z,21.35
2018-01-31T04:03:59.623Z,18.25
2018-01-31T04:06:26.290Z,19.85
2018-01-31T04:08:52.951Z,21.00
2018-01-31T04:11:19.706Z,20.08
2018-01-31T04:13:46.387Z,18.10
2018-01-31T04:16:13.054Z,18.55
2018-01-31T04:18:39.714Z,20.50
2018-01-31T04:21:06.378Z,17.52
2018-01-31T04:23:33.211Z,20.33
2018-01-31T04:25:59.948Z,17.60
2018-01-31T04:28:26.705Z,19.02
2018-01-31T04:30:53.375Z,17.10
2018-01-31T04:33:20.073Z,19.70
2018-01-31T04:35:46.737Z,17.48
2018-01-31T04:38:13.466Z,17.17
2018-01-31T04:40:40.193Z,16.90
2018-01-31T04:43:06.950Z,15.50
2018-01-31T04:45:33.676Z,16.48
2018-01-31T04:48:00.412Z,14.80
2018-01-31T04:50:27.175Z,20.35
2018-01-31T04:52:54.006Z,16.52
2018-01-31T04:55:20.762Z,14.85
2018-01-31T04:57:47.481Z,14.57
2018-01-31T05:00:14.158Z,15.65
2018-01-31T05:02:40.864Z,13.38
2018-01-31T05:05:07.542Z,16.23
2018-01-31T05:07:34.261Z,17.48
2018-01-31T05:10:01.091Z,19.25
2018-01-31T05:12:27.746Z,15.50
2018-01-31T05:14:55.373Z,15.60
2018-01-31T05:17:22.087Z,15.73
2018-01-31T05:19:48.747Z,20.15
2018-01-31T05:22:15.399Z,14.30
2018-01-31T05:24:42.059Z,14.45
2018-01-31T05:27:08.805Z,15.60
2018-01-31T05:29:35.554Z,12.90
2018-01-31T05:32:02.279Z,14.13
2018-01-31T05:34:28.942Z,13.98
2018-01-31T05:36:55.599Z,13.90
2018-01-31T05:39:22.272Z,14.73
2018-01-31T05:41:48.934Z,15.20
2018-01-31T05:44:15.781Z,13.80
2018-01-31T05:46:42.439Z,14.05
2018-01-31T05:49:09.163Z,13.10
2018-01-31T05:51:35.821Z,14.32
2018-01-31T05:54:02.481Z,12.65
2018-01-31T05:56:29.172Z,13.23
2018-01-31T05:58:55.844Z,13.45
2018-01-31T06:01:22.522Z,14.35
2018-01-31T06:03:49.198Z,12.60
2018-01-31T06:06:15.880Z,13.23
2018-01-31T06:08:42.532Z,13.70
2018-01-31T06:11:09.238Z,11.98
2018-01-31T06:13:35.956Z,13.18
2018-01-31T06:16:02.643Z,13.07
2018-01-31T06:18:29.343Z,12.77
2018-01-31T06:20:55.995Z,12.32
2018-01-31T06:23:22.679Z,13.62
2018-01-31T06:25:49.350Z,11.45
2018-01-31T06:28:16.412Z,11.73
2018-01-31T06:30:43.117Z,11.35
2018-01-31T06:33:09.794Z,13.10
2018-01-31T06:35:36.533Z,11.85
2018-01-31T06:38:03.478Z,10.60
2018-01-31T06:40:30.324Z,10.95
2018-01-31T06:42:56.979Z,10.85
2018-01-31T06:45:23.714Z,11.43
2018-01-31T06:47:50.393Z,11.18
2018-01-31T06:50:17.080Z,10.45
2018-01-31T06:52:43.755Z,12.30
2018-01-31T06:55:10.415Z,10.63
2018-01-31T06:57:37.109Z,11.18
2018-01-31T07:00:03.777Z,9.32
2018-01-31T07:02:30.443Z,10.13
2018-01-31T07:04:57.117Z,18.90
2018-01-31T07:07:23.876Z,10.23
2018-01-31T07:09:50.611Z,9.73
2018-01-31T07:12:17.361Z,8.20
2018-01-31T07:14:44.102Z,7.47
2018-01-31T07:17:10.767Z,6.15
2018-01-31T07:19:37.467Z,5.70
2018-01-31T07:22:04.132Z,5.43
2018-01-31T07:24:30.783Z,5.25
2018-01-31T07:26:57.427Z,5.65
2018-01-31T07:29:24.115Z,7.12
2018-01-31T07:31:50.751Z,6.70
2018-01-31T07:34:17.426Z,5.10
2018-01-31T07:36:44.085Z,6.00
2018-01-31T07:39:10.785Z,5.82
2018-01-31T07:41:37.522Z,8.65
2018-01-31T07:44:04.124Z,5.62
2018-01-31T07:46:30.801Z,5.45
2018-01-31T07:48:57.497Z,5.85
2018-01-31T07:51:24.138Z,6.87
2018-01-31T07:53:50.762Z,6.75
2018-01-31T07:56:17.362Z,5.20
2018-01-31T07:58:44.002Z,5.20
2018-01-31T08:01:10.618Z,5.47
2018-01-31T08:03:37.226Z,6.60
2018-01-31T08:06:03.841Z,6.85
2018-01-31T08:08:30.510Z,6.45
2018-01-31T08:10:57.149Z,6.97
2018-01-31T08:13:23.805Z,6.95
2018-01-31T08:15:50.398Z,7.03
2018-01-31T08:18:17.001Z,7.07
2018-01-31T08:20:43.618Z,7.40
2018-01-31T08:23:10.237Z,6.20
2018-01-31T08:25:36.857Z,6.53
2018-01-31T08:28:03.459Z,7.28
2018-01-31T08:30:30.069Z,7.00
2018-01-31T08:32:56.682Z,6.32
2018-01-31T08:35:23.336Z,8.55
2018-01-31T08:37:49.941Z,7.65
2018-01-31T08:40:16.614Z,6.40
2018-01-31T08:42:43.222Z,7.40
2018-01-31T08:45:09.830Z,6.18
2018-01-31T08:47:36.470Z,6.65
2018-01-31T08:50:03.111Z,5.30
2018-01-31T08:52:29.749Z,5.55
2018-01-31T08:54:56.349Z,5.20
2018-01-31T08:57:22.973Z,6.12
2018-01-31T08:59:49.570Z,5.50
2018-01-31T09:02:17.163Z,5.68
2018-01-31T09:04:43.797Z,5.80
2018-01-31T09:07:10.553Z,5.45
2018-01-31T09:09:37.248Z,5.80
2018-01-31T09:12:03.988Z,5.95
2018-01-31T09:14:31.121Z,5.03
2018-01-31T09:16:58.152Z,5.82
2018-01-31T09:19:25.932Z,5.32
2018-01-31T09:21:53.528Z,5.43
2018-01-31T09:24:20.497Z,6.12
2018-01-31T09:26:47.209Z,5.43
2018-01-31T09:29:14.598Z,5.55
2018-01-31T09:31:44.070Z,5.25
2018-01-31T09:34:10.692Z,4.87
2018-01-31T09:36:37.350Z,5.00
2018-01-31T09:39:04.027Z,4.28
2018-01-31T09:41:32.362Z,5.32
2018-01-31T09:44:00.047Z,4.72
2018-01-31T09:46:28.541Z,6.37
2018-01-31T09:48:55.289Z,7.75
2018-01-31T09:51:22.254Z,5.10
2018-01-31T09:53:48.894Z,5.25
2018-01-31T09:56:15.889Z,5.65
2018-01-31T09:58:42.727Z,5.80
2018-01-31T10:01:09.466Z,5.03
2018-01-31T10:03:36.107Z,3.90
2018-01-31T10:06:02.721Z,5.10
2018-01-31T10:08:29.999Z,4.50
2018-01-31T10:10:58.034Z,5.35
2018-01-31T10:13:24.701Z,5.32
2018-01-31T10:15:52.288Z,5.40
2018-01-31T10:18:19.556Z,3.80
2018-01-31T10:20:47.188Z,5.85
2018-01-31T10:23:13.850Z,4.47
2018-01-31T10:25:40.452Z,4.35
2018-01-31T10:28:07.166Z,3.75
2018-01-31T10:30:33.765Z,3.60
2018-01-31T10:33:00.442Z,3.03
2018-01-31T10:35:27.061Z,3.55
2018-01-31T10:37:53.667Z,5.37
2018-01-31T10:40:20.307Z,2.90
2018-01-31T10:42:49.225Z,3.80
2018-01-31T10:45:16.857Z,3.37
2018-01-31T10:47:44.150Z,3.30
2018-01-31T10:50:11.302Z,3.05
2018-01-31T10:52:37.897Z,3.28
2018-01-31T10:57:28.597Z,3.65
2018-01-31T10:57:31.143Z,2.80
2018-01-31T10:59:57.770Z,4.30
2018-01-31T11:02:24.377Z,3.50
2018-01-31T11:04:50.996Z,3.47
2018-01-31T11:07:17.642Z,4.35
2018-01-31T11:09:44.268Z,6.25
2018-01-31T11:12:10.871Z,3.22
2018-01-31T11:14:37.548Z,3.05
2018-01-31T11:17:04.150Z,3.28
2018-01-31T11:19:30.758Z,3.30
2018-01-31T11:21:57.570Z,3.80
2018-01-31T11:24:24.964Z,2.83
2018-01-31T11:26:51.666Z,2.97
2018-01-31T11:29:18.266Z,2.70
2018-01-31T11:31:44.881Z,2.85
2018-01-31T11:34:11.545Z,3.10
2018-01-31T11:36:38.222Z,2.90
2018-01-31T11:39:04.826Z,4.90
2018-01-31T11:41:31.441Z,2.97
2018-01-31T11:43:58.101Z,2.90
2018-01-31T11:46:24.718Z,3.60
2018-01-31T11:48:51.327Z,3.67
2018-01-31T11:51:17.962Z,3.42
2018-01-31T11:53:44.561Z,3.00
2018-01-31T11:56:11.175Z,3.20
2018-01-31T11:58:37.788Z,4.03
2018-01-31T12:01:04.473Z,3.17
2018-01-31T12:03:31.078Z,3.95
2018-01-31T12:05:57.710Z,3.40
2018-01-31T12:08:24.309Z,3.60
2018-01-31T12:10:50.916Z,4.18
2018-01-31T12:13:23.358Z,3.25
2018-01-31T12:15:55.919Z,3.45
2018-01-31T12:18:28.345Z,3.50
2018-01-31T12:21:15.662Z,2.83
2018-01-31T12:23:48.193Z,3.35
2018-01-31T12:26:33.498Z,3.75
2018-01-31T12:29:06.050Z,5.07
2018-01-31T12:31:45.605Z,3.50
2018-01-31T12:34:31.976Z,3.70
2018-01-31T12:37:13.453Z,4.15
2018-01-31T12:39:39.833Z,3.10
2018-01-31T12:42:06.308Z,3.42
2018-01-31T12:44:32.737Z,3.95
2018-01-31T12:47:05.213Z,4.68
2018-01-31T12:49:37.817Z,3.90
2018-01-31T12:52:10.312Z,4.07
2018-01-31T12:54:42.660Z,5.28
2018-01-31T12:57:15.162Z,4.70
2018-01-31T12:59:47.740Z,3.97
2018-01-31T13:02:20.145Z,3.97
2018-01-31T13:04:52.677Z,4.30
2018-01-31T13:07:20.057Z,5.75
2018-01-31T13:09:52.716Z,5.00
2018-01-31T13:12:25.260Z,4.43
2018-01-31T13:14:58.745Z,5.40
2018-01-31T13:17:31.141Z,4.85
2018-01-31T13:20:03.533Z,4.80
2018-01-31T13:22:43.094Z,3.33
2018-01-31T13:25:29.510Z,3.30
2018-01-31T13:28:07.748Z,3.97
2018-01-31T13:30:40.245Z,6.32
2018-01-31T13:33:18.537Z,4.22
2018-01-31T13:35:51.034Z,3.53
2018-01-31T13:38:25.130Z,4.60
2018-01-31T13:40:57.554Z,4.10
2018-01-31T13:43:30.086Z,3.80
2018-01-31T13:46:02.542Z,4.75
2018-01-31T13:48:35.166Z,7.72
2018-01-31T13:51:07.775Z,5.20
2018-01-31T13:53:40.268Z,10.00
2018-01-31T13:56:21.760Z,5.45
2018-01-31T13:58:54.279Z,4.00
2018-01-31T14:01:26.754Z,5.22
2018-01-31T14:03:59.270Z,4.45
2018-01-31T14:06:31.898Z,4.60
2018-01-31T14:09:04.386Z,4.90
2018-01-31T14:11:36.853Z,7.07
2018-01-31T14:14:09.457Z,6.00
2018-01-31T14:16:42.117Z,4.93
2018-01-31T14:19:14.843Z,5.28
2018-01-31T14:21:47.389Z,9.93
2018-01-31T14:24:19.968Z,5.28
2018-01-31T14:26:52.592Z,12.07
2018-01-31T14:29:25.221Z,5.78
2018-01-31T14:31:57.840Z,5.70
2018-01-31T14:34:30.414Z,5.05
2018-01-31T14:36:56.782Z,4.50
2018-01-31T14:39:23.183Z,3.85
2018-01-31T14:41:49.549Z,4.78
2018-01-31T14:44:15.945Z,4.72
2018-01-31T14:46:42.341Z,4.70
2018-01-31T14:49:08.721Z,4.65
2018-01-31T14:51:35.098Z,13.57
2018-01-31T14:54:01.478Z,9.13
2018-01-31T14:56:27.873Z,4.90
2018-01-31T14:58:54.273Z,11.70
2018-01-31T15:01:20.678Z,7.10
2018-01-31T15:03:47.158Z,5.72
2018-01-31T15:06:13.650Z,7.05
2018-01-31T15:08:40.046Z,6.65
2018-01-31T15:11:06.415Z,9.95
2018-01-31T15:13:32.915Z,6.47
2018-01-31T15:15:59.349Z,4.47
2018-01-31T15:18:25.721Z,14.77
2018-01-31T15:20:52.101Z,5.00
2018-01-31T15:23:18.464Z,5.40
2018-01-31T15:25:44.845Z,5.05
2018-01-31T15:28:11.252Z,7.40
2018-01-31T15:30:37.621Z,5.50
2018-01-31T15:33:04.076Z,11.38
2018-01-31T15:35:30.457Z,5.55
2018-01-31T15:37:56.886Z,5.03
2018-01-31T15:40:23.257Z,5.68
2018-01-31T15:42:49.711Z,6.03
2018-01-31T15:45:16.149Z,9.50
2018-01-31T15:47:42.576Z,7.55
2018-01-31T15:50:08.959Z,6.20
2018-01-31T15:52:35.330Z,5.70
2018-01-31T15:55:01.705Z,7.15
2018-01-31T15:57:28.079Z,7.00
2018-01-31T15:59:54.452Z,7.47
2018-01-31T16:02:20.822Z,9.82
2018-01-31T16:04:47.209Z,8.68
2018-01-31T16:07:13.646Z,7.53
2018-01-31T16:09:40.018Z,9.95
2018-01-31T16:12:07.580Z,10.98
2018-01-31T16:14:34.219Z,9.88
2018-01-31T16:17:01.003Z,10.43
2018-01-31T16:19:33.946Z,8.88
2018-01-31T16:22:02.125Z,9.27
2018-01-31T16:24:29.847Z,9.70
2018-01-31T16:26:56.631Z,10.85
2018-01-31T16:29:29.169Z,10.23
2018-01-31T16:32:01.889Z,10.45
2018-01-31T16:34:28.494Z,13.38
2018-01-31T16:36:55.121Z,9.75
2018-01-31T16:39:21.778Z,10.23
2018-01-31T16:41:49.260Z,13.57
2018-01-31T16:44:16.257Z,10.25
2018-01-31T16:46:42.954Z,13.55
2018-01-31T16:49:09.659Z,12.30
2018-01-31T16:51:36.298Z,12.48
2018-01-31T16:54:02.921Z,12.65
2018-01-31T16:56:29.533Z,12.55
2018-01-31T16:58:56.154Z,11.52
2018-01-31T17:01:22.845Z,11.35
2018-01-31T17:03:49.491Z,11.23
2018-01-31T17:06:16.126Z,12.73
2018-01-31T17:08:42.761Z,12.93
2018-01-31T17:11:09.446Z,12.27
2018-01-31T17:13:36.066Z,15.80
2018-01-31T17:16:02.685Z,20.35
2018-01-31T17:18:29.326Z,21.60
2018-01-31T17:20:55.937Z,20.20
2018-01-31T17:23:22.565Z,19.45
2018-01-31T17:25:55.057Z,14.38
2018-01-31T17:28:21.685Z,14.27
2018-01-31T17:30:48.310Z,17.33
2018-01-31T17:33:14.988Z,17.12
2018-01-31T17:35:41.633Z,14.00
2018-01-31T17:38:08.265Z,16.15
2018-01-31T17:40:34.873Z,18.62
2018-01-31T17:43:02.002Z,15.02
2018-01-31T17:45:28.658Z,16.42
2018-01-31T17:47:55.265Z,16.67
2018-01-31T17:50:21.894Z,14.93
2018-01-31T17:52:48.505Z,14.10
2018-01-31T17:55:15.139Z,15.65
2018-01-31T17:57:41.794Z,19.00
2018-01-31T18:00:08.417Z,16.15
2018-01-31T18:02:35.033Z,16.48
2018-01-31T18:05:01.752Z,21.20
2018-01-31T18:07:28.357Z,19.10
2018-01-31T18:09:55.030Z,17.35
2018-01-31T18:12:21.637Z,17.52
2018-01-31T18:14:48.261Z,61.03
2018-01-31T18:17:14.917Z,20.73
2018-01-31T18:19:41.542Z,19.62
2018-01-31T18:22:08.150Z,18.92
2018-01-31T18:24:34.833Z,16.17
2018-01-31T18:27:01.441Z,14.25
2018-01-31T18:29:28.077Z,20.70
2018-01-31T18:31:54.784Z,15.60
2018-01-31T18:34:21.637Z,15.38
2018-01-31T18:36:48.061Z,20.77
2018-01-31T18:39:14.699Z,16.23
2018-01-31T18:41:41.369Z,14.73
2018-01-31T18:44:08.019Z,17.60
2018-01-31T18:46:34.606Z,17.42
2018-01-31T18:49:01.222Z,17.98
2018-01-31T18:51:27.858Z,20.67
2018-01-31T18:53:54.474Z,18.10
2018-01-31T18:56:21.097Z,18.95
2018-01-31T18:58:47.782Z,15.88
2018-01-31T19:01:14.452Z,20.73
2018-01-31T19:03:41.058Z,14.30
2018-01-31T19:06:07.681Z,13.60
2018-01-31T19:08:34.300Z,13.57
2018-01-31T19:11:00.930Z,11.98
2018-01-31T19:13:27.546Z,12.40
2018-01-31T19:15:54.168Z,11.15
2018-01-31T19:18:20.811Z,12.52
2018-01-31T19:20:47.415Z,12.20
2018-01-31T19:23:14.102Z,11.73
2018-01-31T19:25:40.714Z,13.10
2018-01-31T19:28:07.326Z,9.27
2018-01-31T19:30:33.925Z,8.70
2018-01-31T19:33:00.541Z,6.95
2018-01-31T19:35:27.141Z,8.45
2018-01-31T19:37:53.762Z,6.95
2018-01-31T19:40:20.361Z,6.97
2018-01-31T19:42:46.973Z,7.35
2018-01-31T19:45:13.577Z,7.12
2018-01-31T19:47:40.202Z,7.30
2018-01-31T19:50:06.890Z,6.72
2018-01-31T19:52:33.525Z,7.05
2018-01-31T19:55:00.125Z,8.05
2018-01-31T19:57:26.746Z,9.18
2018-01-31T19:59:53.356Z,10.20
2018-01-31T20:02:20.120Z,9.52
2018-01-31T20:04:46.810Z,10.40
2018-01-31T20:07:13.462Z,8.05
2018-01-31T20:09:40.070Z,8.68
2018-01-31T20:12:06.780Z,6.90
2018-01-31T20:14:33.478Z,7.87
2018-01-31T20:17:00.122Z,7.10
2018-01-31T20:19:26.738Z,7.82
2018-01-31T20:21:53.340Z,7.18
2018-01-31T20:24:19.962Z,7.47
2018-01-31T20:26:46.668Z,7.72
2018-01-31T20:29:13.293Z,7.20
2018-01-31T20:31:39.949Z,6.60
2018-01-31T20:34:06.592Z,6.80
2018-01-31T20:36:33.206Z,7.15
2018-01-31T20:38:59.873Z,8.23
2018-01-31T20:41:26.469Z,8.85
2018-01-31T20:43:53.100Z,7.72
2018-01-31T20:46:19.709Z,8.98
2018-01-31T20:48:46.433Z,6.43
2018-01-31T20:51:13.065Z,7.10
2018-01-31T20:53:39.680Z,7.40
2018-01-31T20:56:06.346Z,8.80
2018-01-31T20:58:32.965Z,9.77
2018-01-31T21:00:59.667Z,6.70
2018-01-31T21:03:26.361Z,7.35
2018-01-31T21:05:52.982Z,7.00
2018-01-31T21:08:19.685Z,7.62
2018-01-31T21:10:46.309Z,6.57
2018-01-31T21:13:13.018Z,5.47
2018-01-31T21:15:39.650Z,7.90
2018-01-31T21:18:06.253Z,7.37
2018-01-31T21:20:32.937Z,7.25
2018-01-31T21:22:59.581Z,7.10
2018-01-31T21:25:26.260Z,6.28
2018-01-31T21:27:52.853Z,6.10
2018-01-31T21:30:19.474Z,7.57
2018-01-31T21:32:46.073Z,5.12
2018-01-31T21:35:12.684Z,5.97
2018-01-31T21:37:39.289Z,6.80
2018-01-31T21:40:05.907Z,6.43
2018-01-31T21:42:32.593Z,5.75
2018-01-31T21:44:59.210Z,5.78
2018-01-31T21:47:25.866Z,5.70
2018-01-31T21:49:52.490Z,5.60
2018-01-31T21:52:19.099Z,5.55
2018-01-31T21:54:45.702Z,6.07
2018-01-31T21:57:12.422Z,5.82
2018-01-31T21:59:39.057Z,5.65
2018-01-31T22:02:05.677Z,6.05
2018-01-31T22:04:32.383Z,6.15
2018-01-31T22:06:58.993Z,5.62
2018-01-31T22:09:25.602Z,6.22
2018-01-31T22:11:52.213Z,5.35
2018-01-31T22:14:18.902Z,6.00
2018-01-31T22:16:45.534Z,5.30
2018-01-31T22:19:12.134Z,4.40
2018-01-31T22:21:38.857Z,5.28
2018-01-31T22:24:05.462Z,5.40
2018-01-31T22:26:32.071Z,5.25
2018-01-31T22:28:58.678Z,6.32
2018-01-31T22:31:25.304Z,5.53
2018-01-31T22:33:51.905Z,6.75
2018-01-31T22:36:18.513Z,5.78
2018-01-31T22:38:45.138Z,5.03
2018-01-31T22:41:11.765Z,5.68
2018-01-31T22:43:38.403Z,5.55
2018-01-31T22:46:04.997Z,5.57
2018-01-31T22:48:31.642Z,5.78
2018-01-31T22:50:58.246Z,6.10
2018-01-31T22:53:24.857Z,6.10
2018-01-31T22:55:51.558Z,6.20
2018-01-31T22:58:18.174Z,6.07
2018-01-31T23:00:44.777Z,4.80
2018-01-31T23:03:11.394Z,5.03
2018-01-31T23:05:37.988Z,4.80
2018-01-31T23:08:04.615Z,5.05
2018-01-31T23:10:31.290Z,5.30
2018-01-31T23:13:03.724Z,5.20
2018-01-31T23:15:30.447Z,4.75
2018-01-31T23:18:02.905Z,5.35
2018-01-31T23:20:29.514Z,5.68
2018-01-31T23:22:56.173Z,5.22
2018-01-31T23:25:22.774Z,5.32
2018-01-31T23:27:49.377Z,5.35
2018-01-31T23:30:16.001Z,5.50
2018-01-31T23:32:42.717Z,5.15
2018-01-31T23:35:09.359Z,5.43
2018-01-31T23:37:35.973Z,4.80
2018-01-31T23:40:02.590Z,5.30
2018-01-31T23:42:29.200Z,5.25
2018-01-31T23:44:55.808Z,5.50
2018-01-31T23:47:22.417Z,4.80
2018-01-31T23:49:49.089Z,5.25
2018-01-31T23:52:15.721Z,4.90
2018-01-31T23:54:42.406Z,4.30
2018-01-31T23:57:09.006Z,4.70
2018-01-31T23:59:35.646Z,4.60
